createdAt,value
2018-02-13T00:02:07.984Z,-0.60
2018-02-13T00:04:35.929Z,-0.50
2018-02-13T00:07:03.517Z,-0.50
2018-02-13T00:09:31.566Z,-0.50
2018-02-13T00:11:59.131Z,-0.40
2018-02-13T00:14:27.097Z,-0.30
2018-02-13T00:16:54.643Z,-0.20
2018-02-13T00:19:29.146Z,-0.20
2018-02-13T00:21:57.126Z,-0.20
2018-02-13T00:24:25.447Z,-0.20
2018-02-13T00:26:53.900Z,-0.20
2018-02-13T00:29:24.364Z,-0.20
2018-02-13T00:31:51.925Z,-0.20
2018-02-13T00:34:23.089Z,-0.20
2018-02-13T00:37:01.432Z,-0.10
2018-02-13T00:39:29.030Z,-0.10
2018-02-13T00:41:56.620Z,-0.10
2018-02-13T00:44:24.167Z,0.00
2018-02-13T00:46:52.650Z,0.00
2018-02-13T00:49:20.212Z,0.00
2018-02-13T00:51:47.774Z,0.00
2018-02-13T00:54:15.306Z,0.10
2018-02-13T00:56:42.895Z,0.10
2018-02-13T00:59:10.443Z,0.10
2018-02-13T01:01:39.905Z,0.10
2018-02-13T01:04:07.553Z,0.10
2018-02-13T01:06:35.122Z,0.00
2018-02-13T01:09:02.837Z,0.10
2018-02-13T01:11:30.393Z,0.10
2018-02-13T01:13:57.964Z,0.10
2018-02-13T01:16:26.907Z,0.10
2018-02-13T01:18:55.833Z,0.20
2018-02-13T01:21:23.612Z,0.20
2018-02-13T01:23:51.980Z,0.20
2018-02-13T01:26:19.668Z,0.20
2018-02-13T01:28:47.624Z,0.20
2018-02-13T01:31:18.741Z,0.20
2018-02-13T01:33:46.376Z,0.10
2018-02-13T01:36:13.918Z,0.10
2018-02-13T01:38:41.480Z,0.10
2018-02-13T01:41:09.012Z,0.10
2018-02-13T01:43:36.585Z,0.10
2018-02-13T01:46:04.538Z,0.10
2018-02-13T01:48:33.768Z,0.10
2018-02-13T01:51:01.378Z,0.10
2018-02-13T01:53:29.058Z,0.10
2018-02-13T01:55:56.605Z,0.00
2018-02-13T01:58:24.244Z,0.00
2018-02-13T02:00:51.971Z,0.00
2018-02-13T02:03:19.513Z,0.00
2018-02-13T02:05:47.438Z,-0.10
2018-02-13T02:08:14.991Z,-0.10
2018-02-13T02:10:42.577Z,-0.10
2018-02-13T02:13:10.110Z,-0.20
2018-02-13T02:15:37.761Z,-0.20
2018-02-13T02:18:05.339Z,-0.30
2018-02-13T02:20:32.883Z,-0.40
2018-02-13T02:23:00.472Z,-0.40
2018-02-13T02:25:28.059Z,-0.50
2018-02-13T02:27:56.026Z,-0.60
2018-02-13T02:30:28.383Z,-0.60
2018-02-13T02:32:57.166Z,-0.60
2018-02-13T02:35:31.175Z,-0.60
2018-02-13T02:38:06.995Z,-0.60
2018-02-13T02:40:34.533Z,-0.60
2018-02-13T02:43:05.905Z,-0.60
2018-02-13T02:45:33.456Z,-0.60
2018-02-13T02:48:01.012Z,-0.70
2018-02-13T02:50:28.933Z,-0.70
2018-02-13T02:52:56.500Z,-0.70
2018-02-13T02:55:24.037Z,-0.70
2018-02-13T02:57:51.603Z,-0.70
2018-02-13T03:00:19.150Z,-0.70
2018-02-13T03:02:46.732Z,-0.70
2018-02-13T03:05:14.269Z,-0.70
2018-02-13T03:07:41.824Z,-0.70
2018-02-13T03:10:09.418Z,-0.70
2018-02-13T03:12:36.987Z,-0.70
2018-02-13T03:15:04.928Z,-0.60
2018-02-13T03:17:32.502Z,-0.50
2018-02-13T03:20:00.458Z,-0.60
2018-02-13T03:22:28.277Z,-0.60
2018-02-13T03:24:55.793Z,-0.60
2018-02-13T03:27:24.305Z,-0.60
2018-02-13T03:29:51.940Z,-0.60
2018-02-13T03:32:19.492Z,-0.60
2018-02-13T03:34:47.037Z,-0.60
2018-02-13T03:37:14.594Z,-0.70
2018-02-13T03:39:42.151Z,-0.60
2018-02-13T03:42:09.711Z,-0.70
2018-02-13T03:44:37.272Z,-0.80
2018-02-13T03:47:04.890Z,-0.80
2018-02-13T03:49:33.725Z,-0.90
2018-02-13T03:52:01.333Z,-0.80
2018-02-13T03:54:28.875Z,-0.80
2018-02-13T03:56:56.420Z,-0.80
2018-02-13T03:59:24.375Z,-1.00
2018-02-13T04:01:51.930Z,-1.10
2018-02-13T04:04:19.487Z,-1.00
2018-02-13T04:06:47.092Z,-1.00
2018-02-13T04:09:14.649Z,-1.10
2018-02-13T04:11:42.243Z,-1.10
2018-02-13T04:14:09.830Z,-1.20
2018-02-13T04:16:37.427Z,-1.20
2018-02-13T04:19:04.971Z,-1.20
2018-02-13T04:21:32.518Z,-1.20
2018-02-13T04:24:00.065Z,-1.20
2018-02-13T04:26:27.630Z,-1.30
2018-02-13T04:28:55.221Z,-1.20
2018-02-13T04:31:23.208Z,-1.20
2018-02-13T04:33:50.757Z,-1.20
2018-02-13T04:36:19.638Z,-1.40
2018-02-13T04:38:47.597Z,-1.50
2018-02-13T04:41:15.539Z,-1.50
2018-02-13T04:43:43.105Z,-1.50
2018-02-13T04:46:10.685Z,-1.60
2018-02-13T04:48:38.245Z,-1.60
2018-02-13T04:51:06.199Z,-1.60
2018-02-13T04:53:33.744Z,-1.60
2018-02-13T04:56:01.305Z,-1.60
2018-02-13T04:58:28.836Z,-1.60
2018-02-13T05:00:56.441Z,-1.60
2018-02-13T05:03:23.983Z,-1.70
2018-02-13T05:05:51.526Z,-1.80
2018-02-13T05:08:19.071Z,-1.80
2018-02-13T05:10:46.640Z,-1.80
2018-02-13T05:13:14.198Z,-1.80
2018-02-13T05:15:41.772Z,-1.80
2018-02-13T05:18:09.336Z,-1.80
2018-02-13T05:20:36.925Z,-1.80
2018-02-13T05:23:04.873Z,-1.80
2018-02-13T05:25:32.453Z,-1.80
2018-02-13T05:28:00.014Z,-1.90
2018-02-13T05:30:27.972Z,-2.00
2018-02-13T05:32:55.542Z,-2.00
2018-02-13T05:35:23.122Z,-2.00
2018-02-13T05:37:50.694Z,-2.00
2018-02-13T05:40:18.246Z,-2.10
2018-02-13T05:42:46.217Z,-2.10
2018-02-13T05:45:13.799Z,-2.10
2018-02-13T05:47:41.358Z,-2.10
2018-02-13T05:50:08.952Z,-2.00
2018-02-13T05:52:36.455Z,-2.00
2018-02-13T05:55:04.011Z,-2.00
2018-02-13T05:57:31.554Z,-1.90
2018-02-13T05:59:59.526Z,-1.70
2018-02-13T06:02:27.893Z,-1.60
2018-02-13T06:04:55.469Z,-1.60
2018-02-13T06:07:23.500Z,-1.50
2018-02-13T06:09:51.087Z,-1.50
2018-02-13T06:12:18.639Z,-1.40
2018-02-13T06:14:46.181Z,-1.40
2018-02-13T06:17:14.035Z,-1.30
2018-02-13T06:19:41.616Z,-1.30
2018-02-13T06:22:09.275Z,-1.30
2018-02-13T06:24:36.844Z,-1.20
2018-02-13T06:27:04.532Z,-1.20
2018-02-13T06:29:32.641Z,-1.20
2018-02-13T06:32:00.387Z,-1.20
2018-02-13T06:34:28.007Z,-1.20
2018-02-13T06:36:55.500Z,-1.20
2018-02-13T06:39:23.072Z,-1.20
2018-02-13T06:41:50.761Z,-1.20
2018-02-13T06:44:18.352Z,-1.30
2018-02-13T06:46:46.132Z,-1.30
2018-02-13T06:49:13.725Z,-1.40
2018-02-13T06:51:41.298Z,-1.40
2018-02-13T06:54:09.835Z,-1.50
2018-02-13T06:56:37.958Z,-1.60
2018-02-13T06:59:06.999Z,-1.60
2018-02-13T07:01:34.970Z,-1.70
2018-02-13T07:04:02.513Z,-1.60
2018-02-13T07:06:30.501Z,-1.60
2018-02-13T07:09:02.634Z,-1.60
2018-02-13T07:11:30.667Z,-1.60
2018-02-13T07:13:58.217Z,-1.60
2018-02-13T07:16:25.796Z,-1.60
2018-02-13T07:18:53.366Z,-1.50
2018-02-13T07:21:20.926Z,-1.50
2018-02-13T07:23:48.562Z,-1.50
2018-02-13T07:26:16.118Z,-1.40
2018-02-13T07:28:43.697Z,-1.40
2018-02-13T07:31:11.263Z,-1.30
2018-02-13T07:33:38.826Z,-1.20
2018-02-13T07:36:06.409Z,-1.20
2018-02-13T07:38:33.950Z,-1.20
2018-02-13T07:41:01.546Z,-1.10
2018-02-13T07:43:29.708Z,-1.00
2018-02-13T07:45:57.321Z,-1.00
2018-02-13T07:48:24.897Z,-0.90
2018-02-13T07:53:56.154Z,-0.80
2018-02-13T07:56:25.350Z,-0.80
2018-02-13T07:58:52.977Z,-0.70
2018-02-13T08:01:20.721Z,-0.60
2018-02-13T08:03:48.317Z,-0.60
2018-02-13T08:06:16.011Z,-0.50
2018-02-13T08:08:43.990Z,-0.40
2018-02-13T08:11:11.561Z,-0.40
2018-02-13T08:13:39.180Z,-0.30
2018-02-13T08:16:06.850Z,-0.30
2018-02-13T08:18:34.451Z,-0.20
2018-02-13T13:44:42.264Z,20.60
2018-02-13T13:47:09.882Z,19.90
2018-02-13T13:49:37.420Z,19.60
2018-02-13T13:52:04.999Z,18.70
2018-02-13T13:54:32.572Z,17.10
2018-02-13T13:57:01.678Z,15.70
2018-02-13T13:59:30.191Z,15.70
2018-02-13T14:01:57.732Z,15.70
2018-02-13T14:04:25.368Z,15.60
2018-02-13T14:06:52.912Z,15.70
2018-02-13T14:09:20.456Z,15.60
2018-02-13T14:11:48.052Z,15.40
2018-02-13T14:14:16.069Z,14.90
2018-02-13T14:16:43.611Z,14.90
2018-02-13T14:19:11.188Z,15.20
2018-02-13T14:21:41.360Z,15.40
2018-02-13T14:24:09.313Z,14.90
2018-02-13T14:26:36.974Z,14.90
2018-02-13T14:29:10.858Z,13.80
2018-02-13T14:31:53.372Z,12.50
2018-02-13T14:34:20.925Z,12.10
2018-02-13T14:36:48.487Z,12.00
2018-02-13T14:39:16.091Z,11.50
2018-02-13T14:41:44.080Z,12.70
2018-02-13T14:44:12.775Z,14.10
2018-02-13T14:46:40.823Z,13.90
2018-02-13T14:49:08.513Z,13.90
2018-02-13T14:51:36.172Z,13.80
2018-02-13T14:54:04.084Z,15.00
2018-02-13T14:56:32.161Z,16.40
2018-02-13T14:59:22.792Z,17.60
2018-02-13T15:07:47.755Z,16.10
2018-02-13T15:13:49.576Z,16.40
2018-02-13T15:16:19.563Z,15.10
2018-02-13T15:18:47.158Z,13.30
2018-02-13T15:21:21.070Z,11.50
2018-02-13T15:26:56.162Z,8.90
2018-02-13T15:29:43.821Z,7.60
2018-02-13T15:38:29.960Z,7.80
2018-02-13T15:41:04.591Z,7.80
2018-02-13T15:43:39.189Z,7.70
2018-02-13T15:46:17.863Z,7.70
2018-02-13T15:48:50.443Z,7.60
2018-02-13T15:51:32.630Z,7.30
2018-02-13T15:54:00.770Z,7.80
2018-02-13T15:56:29.570Z,7.70
2018-02-13T15:59:03.628Z,8.10
2018-02-13T16:01:37.959Z,7.60
2018-02-13T16:04:18.000Z,7.10
2018-02-13T16:43:04.361Z,3.40
2018-02-13T16:54:31.082Z,2.80
2018-02-13T16:57:04.911Z,2.80
2018-02-13T16:59:38.724Z,2.80
2018-02-13T17:11:18.386Z,2.50
2018-02-13T17:13:46.515Z,2.40
2018-02-13T17:16:21.877Z,2.40
2018-02-13T17:18:51.078Z,2.40
2018-02-13T17:21:19.145Z,2.30
2018-02-13T17:23:47.107Z,2.20
2018-02-13T17:26:15.147Z,2.20
2018-02-13T17:28:42.697Z,2.20
2018-02-13T17:31:10.264Z,2.10
2018-02-13T17:33:37.814Z,2.00
2018-02-13T17:36:05.397Z,1.80
2018-02-13T17:38:34.921Z,1.80
2018-02-13T17:41:02.852Z,1.70
2018-02-13T17:43:37.892Z,1.70
2018-02-13T17:46:05.416Z,1.60
2018-02-13T17:48:34.278Z,1.60
2018-02-13T17:51:01.898Z,1.50
2018-02-13T17:53:31.456Z,1.30
2018-02-13T17:56:00.172Z,1.30
2018-02-13T17:58:27.856Z,1.30
2018-02-13T18:00:56.644Z,1.20
2018-02-13T18:03:24.210Z,1.10
2018-02-13T18:05:52.744Z,1.00
2018-02-13T18:08:20.347Z,1.00
2018-02-13T18:10:48.276Z,1.00
2018-02-13T18:13:19.164Z,1.00
2018-02-13T18:15:48.919Z,1.00
2018-02-13T18:18:19.408Z,1.00
2018-02-13T18:20:47.066Z,1.10
2018-02-13T18:23:15.528Z,1.10
2018-02-13T18:25:43.117Z,1.10
2018-02-13T18:28:11.137Z,1.10
2018-02-13T18:30:38.832Z,1.10
2018-02-13T18:33:06.503Z,1.10
2018-02-13T18:35:47.401Z,1.10
2018-02-13T18:38:17.621Z,1.10
2018-02-13T18:40:46.654Z,1.00
2018-02-13T18:43:16.925Z,1.00
2018-02-13T18:45:45.930Z,0.90
2018-02-13T18:48:15.413Z,0.90
2018-02-13T18:50:44.533Z,0.80
2018-02-13T18:56:12.870Z,0.80
2018-02-13T18:58:54.432Z,0.70
2018-02-13T19:01:43.864Z,0.70
2018-02-13T19:04:21.437Z,0.60
2018-02-13T19:06:59.204Z,0.60
2018-02-13T19:09:32.925Z,0.60
2018-02-13T19:12:05.650Z,0.50
2018-02-13T19:17:22.545Z,0.50
2018-02-13T19:19:54.305Z,0.40
2018-02-13T19:22:32.625Z,0.40
2018-02-13T19:25:04.902Z,0.30
2018-02-13T19:27:36.522Z,0.30
2018-02-13T19:30:13.156Z,0.30
2018-02-13T19:32:43.558Z,0.30
2018-02-13T19:35:16.480Z,0.10
2018-02-13T19:37:49.323Z,0.20
2018-02-13T19:40:24.466Z,0.10
2018-02-13T19:46:01.759Z,0.00
2018-02-13T19:48:34.482Z,0.00
2018-02-13T19:51:11.006Z,0.00
2018-02-13T19:53:43.957Z,0.00
2018-02-13T19:56:12.445Z,0.00
2018-02-13T19:58:45.911Z,0.00
2018-02-13T20:07:20.549Z,0.00
2018-02-13T20:09:49.042Z,0.00
2018-02-13T20:12:17.076Z,-0.10
2018-02-13T20:14:44.675Z,0.00
2018-02-13T20:17:13.606Z,-0.10
2018-02-13T20:19:45.749Z,-0.10
2018-02-13T20:22:21.749Z,-0.10
2018-02-13T20:25:44.501Z,-0.10
2018-02-13T20:34:25.583Z,-0.30
2018-02-13T20:37:12.155Z,-0.30
2018-02-13T20:42:20.224Z,-0.30
2018-02-13T20:44:51.093Z,-0.40
2018-02-13T20:47:24.896Z,-0.40
2018-02-13T20:50:02.605Z,-0.40
2018-02-13T20:52:38.790Z,-0.40
2018-02-13T20:55:09.534Z,-0.40
2018-02-13T20:57:37.142Z,-0.50
2018-02-13T21:00:04.892Z,-0.50
2018-02-13T21:02:33.183Z,-0.50
2018-02-13T21:05:04.170Z,-0.50
2018-02-13T21:07:32.080Z,-0.50
2018-02-13T21:18:40.243Z,-0.60
2018-02-13T21:24:06.998Z,-0.60
2018-02-13T21:26:34.610Z,-0.60
2018-02-13T21:29:02.310Z,-0.60
2018-02-13T21:31:30.993Z,-0.60
2018-02-13T21:33:58.945Z,-0.60
2018-02-13T21:36:29.315Z,-0.60
2018-02-13T21:39:00.788Z,-0.70
2018-02-13T21:41:29.655Z,-0.70
2018-02-13T21:43:59.094Z,-0.70
2018-02-13T21:46:27.171Z,-0.80
2018-02-13T21:51:30.586Z,-0.80
2018-02-13T21:56:40.574Z,-0.90
2018-02-13T21:59:10.959Z,-0.90
2018-02-13T22:01:42.607Z,-0.90
2018-02-13T22:04:10.292Z,-0.90
2018-02-13T22:06:39.177Z,-1.00
2018-02-13T22:09:06.837Z,-1.00
2018-02-13T22:11:35.023Z,-1.00
2018-02-13T22:14:03.024Z,-1.00
2018-02-13T22:16:30.828Z,-1.00
2018-02-13T22:18:59.122Z,-1.00
2018-02-13T22:21:27.708Z,-1.00
2018-02-13T22:23:55.305Z,-1.00
2018-02-13T22:26:22.902Z,-1.00
2018-02-13T22:28:50.442Z,-1.00
2018-02-13T22:31:18.301Z,-1.00
2018-02-13T22:33:46.742Z,-1.10
2018-02-13T22:36:14.945Z,-1.10
2018-02-13T22:38:43.211Z,-1.10
2018-02-13T22:41:12.451Z,-1.20
2018-02-13T22:43:41.091Z,-1.20
2018-02-13T22:46:08.804Z,-1.20
2018-02-13T22:48:36.741Z,-1.30
2018-02-13T22:51:04.449Z,-1.30
2018-02-13T22:53:32.881Z,-1.30
2018-02-13T22:56:00.806Z,-1.30
2018-02-13T22:58:30.602Z,-1.30
2018-02-13T23:00:58.407Z,-1.30
2018-02-13T23:03:26.595Z,-1.30
2018-02-13T23:05:55.828Z,-1.30
2018-02-13T23:08:23.773Z,-1.30
2018-02-13T23:10:52.090Z,-1.40
2018-02-13T23:13:20.546Z,-1.40
2018-02-13T23:18:31.385Z,-1.40
2018-02-13T23:21:02.864Z,-1.50
2018-02-13T23:23:36.528Z,-1.50
2018-02-13T23:26:09.040Z,-1.50
2018-02-13T23:28:41.473Z,-1.50
2018-02-13T23:31:12.153Z,-1.50
2018-02-13T23:33:42.443Z,-1.50
2018-02-13T23:36:12.727Z,-1.60
2018-02-13T23:38:51.259Z,-1.60
2018-02-13T23:41:20.218Z,-1.60
2018-02-13T23:43:48.882Z,-1.70
2018-02-13T23:46:17.005Z,-1.70
2018-02-13T23:48:48.480Z,-1.70
2018-02-13T23:51:17.774Z,-1.80
2018-02-13T23:53:46.722Z,-1.70
2018-02-13T23:56:15.296Z,-1.70
2018-02-13T23:58:45.994Z,-1.70
